Time;durP1;ratioP1;P1;durP2;ratioP2;P2;SDS_P1;SDS_P2;PMS_P1;PMS_P2;Temp;Humidity;BMP_temperature;BMP_pressure;BME280_temperature;BME280_humidity;BME280_pressure;Samples;Min_cycle;Max_cycle;Signal;HPM_P1;HPM_P2
2020/12/25 00:00:57;;;;;;;13.05;2.03;;;;;;;4.21;76.19;101880.69;4977963;28;20390;-62
2020/12/25 00:03:36;;;;;;;9.05;1.95;;;;;;;4.30;75.93;101892.88;4977745;28;20055;-63
2020/12/25 00:06:03;;;;;;;15.35;2.80;;;;;;;4.39;76.03;101898.75;4977811;28;20050;-63
2020/12/25 00:08:29;;;;;;;8.35;2.05;;;;;;;4.39;75.44;101899.56;4977633;28;20061;-63
2020/12/25 00:15:25;;;;;;;11.85;2.28;;;;;;;4.65;74.57;101909.06;4976584;28;20047;-68
2020/12/25 00:17:52;;;;;;;14.77;2.35;;;;;;;4.41;74.90;101897.44;4977124;28;20482;-66
2020/12/25 00:20:18;;;;;;;16.40;2.28;;;;;;;4.48;75.01;101909.03;4977751;28;20061;-64
2020/12/25 00:22:45;;;;;;;9.77;2.58;;;;;;;4.56;75.13;101910.53;4977127;28;20047;-69
2020/12/25 00:29:42;;;;;;;9.25;2.20;;;;;;;4.31;75.75;101915.50;4977235;28;20117;-67
2020/12/25 00:32:08;;;;;;;8.90;2.33;;;;;;;4.31;76.10;101902.69;4976886;28;20463;-69
2020/12/25 00:34:35;;;;;;;10.07;2.00;;;;;;;4.17;76.63;101920.41;4976928;28;20047;-69
2020/12/25 00:37:02;;;;;;;7.95;2.35;;;;;;;4.38;75.94;101918.91;4976824;28;20061;-69
2020/12/25 00:44:10;;;;;;;8.32;1.40;;;;;;;4.24;76.37;101932.00;4977099;28;20038;-67
2020/12/25 00:46:37;;;;;;;10.80;1.85;;;;;;;4.37;76.18;101896.28;4977964;28;20406;-65
2020/12/25 00:49:04;;;;;;;12.10;2.55;;;;;;;4.44;75.56;101904.31;4976820;28;20057;-68
2020/12/25 00:51:32;;;;;;;5.20;1.40;;;;;;;4.36;75.85;101907.41;5008336;28;20055;-65
2020/12/25 00:53:59;;;;;;;7.25;1.48;;;;;;;4.56;75.63;101908.66;4960951;28;20051;-65
2020/12/25 01:01:07;;;;;;;6.10;1.35;;;;;;;4.14;76.83;101900.97;4958405;28;20058;-66
2020/12/25 01:03:35;;;;;;;10.70;1.73;;;;;;;4.12;77.20;101911.28;4974911;28;20047;-65
2020/12/25 01:06:07;;;;;;;5.97;1.75;;;;;;;3.96;77.88;101918.34;4974518;28;20154;-64
2020/12/25 01:08:34;;;;;;;7.97;1.45;;;;;;;4.04;77.80;101912.53;4973208;28;20066;-63
2020/12/25 01:15:30;;;;;;;10.98;1.52;;;;;;;3.97;78.65;101905.53;4974105;28;20051;-64
2020/12/25 01:17:57;;;;;;;6.80;1.83;;;;;;;3.88;79.33;101916.00;4973404;28;20054;-61
2020/12/25 01:20:23;;;;;;;7.78;1.40;;;;;;;3.76;79.35;101909.72;4974473;28;20158;-66
2020/12/25 01:22:50;;;;;;;5.43;1.30;;;;;;;3.95;78.84;101916.69;4974080;28;20055;-62
2020/12/25 01:29:44;;;;;;;7.38;1.48;;;;;;;3.88;78.80;101909.69;4976038;28;20046;-64
2020/12/25 01:32:10;;;;;;;5.93;1.42;;;;;;;3.85;79.27;101911.03;4976507;28;20482;-66
2020/12/25 01:34:37;;;;;;;5.03;1.55;;;;;;;3.89;79.12;101917.63;5007220;28;20046;-63
2020/12/25 01:37:04;;;;;;;5.32;1.65;;;;;;;3.82;79.49;101910.69;4975867;28;20057;-65
2020/12/25 01:39:31;;;;;;;5.90;1.92;;;;;;;3.81;79.47;101920.75;4976329;28;20058;-64
2020/12/25 01:46:36;;;;;;;6.18;1.58;;;;;;;3.63;80.56;101915.44;4974415;28;20058;-64
2020/12/25 01:49:03;;;;;;;6.00;1.63;;;;;;;3.63;81.47;101923.59;4975130;28;20068;-68
2020/12/25 01:51:30;;;;;;;9.73;2.45;;;;;;;3.74;80.84;101933.66;4975429;28;20055;-65
2020/12/25 01:53:57;;;;;;;12.23;2.22;;;;;;;3.86;80.03;101926.31;4976595;28;20057;-64
2020/12/25 01:56:24;;;;;;;8.60;2.53;;;;;;;3.78;81.12;101925.84;4992216;28;20059;-65
2020/12/25 01:58:51;;;;;;;11.27;2.55;;;;;;;3.82;80.94;101927.84;4992193;28;20394;-66
2020/12/25 02:01:18;;;;;;;7.05;2.13;;;;;;;3.87;80.65;101924.41;4977193;28;20054;-65
2020/12/25 02:03:45;;;;;;;15.50;2.83;;;;;;;3.87;79.87;101935.31;4975866;28;20402;-65
2020/12/25 02:06:12;;;;;;;10.02;2.72;;;;;;;3.54;81.28;101930.47;4975681;28;20058;-65
2020/12/25 02:08:39;;;;;;;6.97;2.85;;;;;;;3.54;81.27;101933.19;4973984;28;20051;-67
2020/12/25 02:11:07;;;;;;;10.65;2.45;;;;;;;3.57;81.56;101937.34;4958519;28;20051;-65
2020/12/25 02:13:35;;;;;;;8.63;2.75;;;;;;;3.76;80.99;101928.81;4973982;28;20483;-65
2020/12/25 02:16:02;;;;;;;8.23;2.20;;;;;;;3.83;80.79;101920.50;4990342;28;20058;-65
2020/12/25 02:18:36;;;;;;;12.18;2.75;;;;;;;3.67;81.59;101930.22;4974910;28;20407;-65
2020/12/25 02:21:04;;;;;;;14.07;3.28;;;;;;;3.87;81.14;101921.69;4974734;28;20047;-65
2020/12/25 02:23:31;;;;;;;11.85;2.92;;;;;;;3.73;81.89;101932.00;4974849;28;20054;-66
2020/12/25 02:25:58;;;;;;;10.48;2.47;;;;;;;3.66;82.29;101947.63;4973523;28;20054;-65
2020/12/25 02:28:25;;;;;;;12.15;2.83;;;;;;;3.69;82.63;101943.63;4975146;28;20054;-69
2020/12/25 02:30:51;;;;;;;15.80;3.72;;;;;;;3.67;82.19;101943.03;4975445;28;20046;-68
2020/12/25 02:33:18;;;;;;;10.20;2.80;;;;;;;3.59;82.99;101937.94;4974673;28;20051;-65
2020/12/25 02:35:45;;;;;;;12.48;3.05;;;;;;;3.68;82.68;101941.97;4975384;28;20498;-69
2020/12/25 02:38:12;;;;;;;11.65;3.70;;;;;;;3.84;82.50;101936.59;4976737;28;20055;-65
2020/12/25 02:40:39;;;;;;;13.70;3.63;;;;;;;3.91;82.24;101942.75;4990056;28;20047;-66
2020/12/25 02:43:06;;;;;;;13.50;3.33;;;;;;;3.79;82.32;101946.56;4990056;28;20054;-65
2020/12/25 02:45:33;;;;;;;13.35;3.30;;;;;;;3.84;82.23;101941.22;4974887;28;20051;-66
2020/12/25 02:47:59;;;;;;;14.77;3.60;;;;;;;3.86;82.41;101950.81;4989778;28;20391;-64
2020/12/25 02:50:26;;;;;;;13.95;3.15;;;;;;;3.82;82.42;101951.56;4975050;28;20479;-64
2020/12/25 02:52:53;;;;;;;14.48;3.47;;;;;;;3.73;83.07;101961.97;4974371;28;20391;-64
2020/12/25 02:55:20;;;;;;;12.02;3.72;;;;;;;4.04;82.38;101960.75;4975407;28;20481;-63
2020/12/25 03:02:12;;;;;;;17.85;4.40;;;;;;;3.96;82.27;101967.41;4974684;28;20046;-64
2020/12/25 03:04:42;;;;;;;18.55;3.55;;;;;;;4.09;81.54;101967.16;4974499;28;20514;-64
2020/12/25 03:07:10;;;;;;;14.82;3.45;;;;;;;3.87;82.12;101984.38;4974387;28;20047;-64
2020/12/25 03:09:37;;;;;;;12.27;2.80;;;;;;;3.92;81.73;101987.19;4973959;28;20043;-63
2020/12/25 03:12:04;;;;;;;16.17;3.00;;;;;;;3.90;82.37;101983.88;4974456;28;20414;-65
2020/12/25 03:14:31;;;;;;;11.57;3.03;;;;;;;3.98;81.51;101976.16;4974543;28;20148;-64
2020/12/25 03:16:58;;;;;;;11.15;2.78;;;;;;;4.03;81.22;101986.34;4975024;28;20429;-65
2020/12/25 03:19:25;;;;;;;8.85;2.42;;;;;;;3.93;81.51;101977.94;4988723;28;20050;-65
2020/12/25 03:21:52;;;;;;;8.85;2.78;;;;;;;3.90;81.62;101984.72;4974153;28;20506;-63
2020/12/25 03:24:20;;;;;;;13.93;2.65;;;;;;;3.87;82.05;101985.16;4974644;28;20057;-67
2020/12/25 03:26:48;;;;;;;12.35;2.47;;;;;;;4.09;80.97;101980.78;4966521;28;20058;-63
2020/12/25 03:29:15;;;;;;;8.10;2.60;;;;;;;3.83;81.70;101996.81;4957242;28;20051;-65
2020/12/25 03:31:42;;;;;;;9.10;2.60;;;;;;;3.77;82.15;101984.13;4974220;28;20054;-64
2020/12/25 03:34:11;;;;;;;12.43;2.40;;;;;;;3.95;82.21;101987.56;4975061;28;20051;-63
2020/12/25 03:36:38;;;;;;;7.57;2.15;;;;;;;4.03;81.75;101986.34;4973798;28;20065;-66
2020/12/25 03:39:05;;;;;;;11.50;2.40;;;;;;;4.16;81.21;101991.53;4974451;28;20368;-64
2020/12/25 03:41:32;;;;;;;10.75;2.72;;;;;;;4.06;81.19;102002.25;4974092;28;20427;-68
2020/12/25 03:43:59;;;;;;;7.82;2.03;;;;;;;4.04;81.71;101996.19;4989043;28;20459;-69
2020/12/25 03:46:34;;;;;;;11.35;2.35;;;;;;;3.94;82.29;101994.06;4973789;28;20055;-65
2020/12/25 03:49:06;;;;;;;10.73;2.55;;;;;;;4.10;81.81;101997.94;4973551;28;20051;-67
2020/12/25 03:51:33;;;;;;;10.02;2.60;;;;;;;4.03;81.93;102000.81;4988787;28;20372;-67
2020/12/25 03:54:00;;;;;;;7.68;2.10;;;;;;;4.28;81.65;101998.63;4957199;28;20070;-67
2020/12/25 03:56:27;;;;;;;7.82;2.33;;;;;;;4.14;81.79;101990.94;4974886;28;20042;-67
2020/12/25 03:58:53;;;;;;;9.18;2.20;;;;;;;4.02;82.24;102001.06;4974116;28;20058;-66
2020/12/25 04:01:20;;;;;;;11.40;2.67;;;;;;;4.00;82.68;102004.03;4974307;28;20055;-64
2020/12/25 04:03:47;;;;;;;16.15;2.63;;;;;;;4.01;82.67;102000.22;4973329;28;20057;-64
2020/12/25 04:06:14;;;;;;;9.05;2.70;;;;;;;3.98;82.91;102000.69;4973977;28;20079;-69
2020/12/25 04:08:45;;;;;;;10.63;3.10;;;;;;;3.88;83.07;102002.38;4974206;28;20050;-69
2020/12/25 04:11:13;;;;;;;17.23;3.80;;;;;;;3.96;83.96;101991.09;4956967;28;20043;-68
2020/12/25 04:13:40;;;;;;;8.98;2.42;;;;;;;3.86;83.46;101994.44;4974029;28;20051;-69
2020/12/25 04:16:07;;;;;;;11.13;3.08;;;;;;;3.86;83.77;101994.44;4973960;28;20149;-67
2020/12/25 04:18:34;;;;;;;10.35;2.75;;;;;;;3.95;84.06;101997.63;4987881;28;20368;-65
2020/12/25 04:21:01;;;;;;;11.73;2.78;;;;;;;3.88;83.68;101996.91;4973634;28;20062;-68
2020/12/25 04:23:28;;;;;;;11.38;2.40;;;;;;;3.84;83.98;101993.00;4974529;28;20058;-72
2020/12/25 04:25:55;;;;;;;12.10;2.55;;;;;;;3.83;84.38;102005.81;4974811;28;20054;-67
2020/12/25 04:32:53;;;;;;;16.05;2.75;;;;;;;4.21;82.75;101995.22;4954706;29;20066;-66
2020/12/25 04:35:20;;;;;;;9.52;2.55;;;;;;;4.18;82.18;102012.06;4953401;29;20055;-64
2020/12/25 04:37:48;;;;;;;10.60;2.30;;;;;;;4.15;82.61;102009.78;4954256;29;20058;-66
2020/12/25 04:40:14;;;;;;;11.13;2.50;;;;;;;4.13;82.77;102016.56;4953402;29;20062;-64
2020/12/25 04:47:09;;;;;;;9.02;2.13;;;;;;;3.95;83.82;102020.25;4957912;29;20043;-67
2020/12/25 04:49:39;;;;;;;10.77;2.40;;;;;;;3.99;83.46;102026.88;4957844;29;20062;-63
2020/12/25 04:52:06;;;;;;;9.00;2.15;;;;;;;4.02;83.45;102028.31;4957859;29;20047;-63
2020/12/25 04:54:33;;;;;;;12.13;2.58;;;;;;;4.01;83.54;102023.94;4956926;29;20047;-66
2020/12/25 04:57:00;;;;;;;10.02;2.38;;;;;;;4.00;83.58;102033.16;4957731;28;20051;-65
2020/12/25 04:59:28;;;;;;;8.90;2.50;;;;;;;3.90;84.10;102030.22;4955727;29;20051;-63
2020/12/25 05:01:56;;;;;;;9.82;2.58;;;;;;;3.87;84.26;102027.97;4957432;29;20059;-67
2020/12/25 05:04:24;;;;;;;10.82;2.13;;;;;;;4.08;83.86;102039.09;4972013;28;20063;-63
2020/12/25 05:06:52;;;;;;;10.57;2.33;;;;;;;4.01;84.00;102038.38;4956764;29;20058;-64
2020/12/25 05:09:23;;;;;;;12.85;2.97;;;;;;;4.11;83.68;102041.34;4957272;29;20051;-63
2020/12/25 05:11:57;;;;;;;11.57;2.13;;;;;;;4.01;83.91;102034.84;4955160;29;20055;-63
2020/12/25 05:14:28;;;;;;;8.88;2.00;;;;;;;4.17;83.55;102043.09;4956998;29;20060;-64
2020/12/25 05:16:57;;;;;;;10.05;2.38;;;;;;;4.02;83.74;102047.41;4956510;29;20050;-63
2020/12/25 05:19:29;;;;;;;11.03;2.47;;;;;;;3.94;84.67;102048.56;4956972;29;20415;-63
2020/12/25 05:21:57;;;;;;;7.50;2.00;;;;;;;4.02;84.29;102053.69;4971911;28;20055;-65
2020/12/25 05:24:24;;;;;;;7.13;2.33;;;;;;;3.94;85.18;102045.84;4957172;29;20054;-65
2020/12/25 05:26:56;;;;;;;7.38;2.10;;;;;;;3.93;84.95;102044.19;4956682;29;20055;-63
2020/12/25 05:29:24;;;;;;;7.45;1.98;;;;;;;4.03;84.45;102038.97;4939683;29;20047;-64
2020/12/25 05:31:52;;;;;;;11.20;2.67;;;;;;;4.18;84.54;102043.94;4968076;28;20057;-64
2020/12/25 05:34:20;;;;;;;11.68;2.03;;;;;;;4.18;84.03;102057.59;4976205;28;20054;-66
2020/12/25 05:37:05;;;;;;;13.18;2.42;;;;;;;4.08;84.36;102044.53;4976071;28;20055;-64
2020/12/25 05:39:34;;;;;;;7.28;1.92;;;;;;;4.14;84.48;102050.94;4976326;28;20054;-63
2020/12/25 05:42:03;;;;;;;10.57;1.83;;;;;;;4.00;84.55;102044.91;4976967;28;20055;-63
2020/12/25 05:44:36;;;;;;;11.90;3.03;;;;;;;4.16;84.61;102052.38;4976113;28;20062;-65
2020/12/25 05:47:02;;;;;;;10.80;2.20;;;;;;;4.10;84.25;102049.75;4974730;28;20051;-63
2020/12/25 05:49:30;;;;;;;10.63;2.00;;;;;;;4.26;84.02;102054.47;4976211;28;20069;-64
2020/12/25 05:51:57;;;;;;;6.53;1.92;;;;;;;4.14;84.30;102061.84;4975651;28;20050;-63
2020/12/25 05:54:25;;;;;;;10.85;1.95;;;;;;;4.22;84.00;102053.31;4975859;28;20047;-63
2020/12/25 05:56:55;;;;;;;9.20;1.98;;;;;;;4.27;83.52;102054.25;4973977;28;20043;-64
2020/12/25 06:03:59;;;;;;;15.20;3.63;;;;;;;4.20;84.03;102075.34;4975722;28;20053;-65
2020/12/25 06:06:28;;;;;;;5.57;1.60;;;;;;;4.20;84.03;102069.09;4974669;28;20054;-65
2020/12/25 06:08:59;;;;;;;7.95;1.63;;;;;;;4.47;83.70;102072.94;4975230;28;20065;-63
2020/12/25 06:11:30;;;;;;;8.95;2.00;;;;;;;4.41;82.13;102074.72;4974976;28;20062;-64
2020/12/25 06:13:58;;;;;;;5.78;2.08;;;;;;;4.40;83.02;102072.25;4976071;28;20501;-63
2020/12/25 06:16:27;;;;;;;7.32;1.90;;;;;;;4.42;82.63;102078.31;4976108;28;20406;-64
2020/12/25 06:19:09;;;;;;;7.80;2.20;;;;;;;4.21;83.39;102081.63;4989541;28;20058;-65
2020/12/25 06:21:48;;;;;;;17.27;2.67;;;;;;;4.34;83.02;102089.59;4973928;28;20046;-64
2020/12/25 06:24:17;;;;;;;5.55;1.48;;;;;;;4.26;82.96;102088.03;4974398;28;20384;-64
2020/12/25 06:26:49;;;;;;;5.40;1.52;;;;;;;4.36;82.66;102099.16;4966137;28;20364;-64
2020/12/25 06:29:17;;;;;;;5.97;1.98;;;;;;;4.36;82.17;102104.63;4975270;28;20057;-64
2020/12/25 06:31:44;;;;;;;5.40;1.75;;;;;;;4.43;81.97;102104.50;4974813;28;20058;-64
2020/12/25 06:34:13;;;;;;;9.50;1.85;;;;;;;4.29;82.49;102103.09;4973683;28;20059;-64
2020/12/25 06:36:45;;;;;;;4.47;1.35;;;;;;;4.32;82.66;102103.44;4990064;28;20047;-64
2020/12/25 06:39:15;;;;;;;6.78;1.70;;;;;;;4.41;82.31;102112.91;4957543;28;20051;-65
2020/12/25 06:41:43;;;;;;;8.07;1.83;;;;;;;4.30;81.95;102108.31;4974595;28;20529;-63
2020/12/25 06:44:17;;;;;;;6.35;1.70;;;;;;;4.26;82.73;102114.47;4974667;28;20051;-64
2020/12/25 06:46:48;;;;;;;6.60;2.03;;;;;;;4.42;82.12;102116.50;4975140;28;20395;-64
2020/12/25 06:49:16;;;;;;;6.35;1.80;;;;;;;4.41;81.99;102118.38;4973449;28;20046;-63
2020/12/25 06:51:44;;;;;;;10.10;2.17;;;;;;;4.27;81.75;102122.41;4973388;28;20509;-64
2020/12/25 06:54:19;;;;;;;6.60;1.70;;;;;;;4.27;81.37;102125.13;4973722;28;20054;-63
2020/12/25 06:56:53;;;;;;;6.30;1.65;;;;;;;4.26;81.54;102130.84;4974245;28;20047;-64
2020/12/25 06:59:22;;;;;;;6.00;1.40;;;;;;;4.24;81.31;102128.34;4974111;28;20047;-64
2020/12/25 07:01:51;;;;;;;3.35;1.30;;;;;;;4.26;80.87;102142.59;4974229;28;20520;-63
2020/12/25 07:04:36;;;;;;;8.60;1.75;;;;;;;4.38;80.96;102126.22;4974322;28;20047;-64
2020/12/25 07:07:06;;;;;;;4.97;1.60;;;;;;;4.37;80.74;102124.56;4973892;28;20116;-64
2020/12/25 07:09:38;;;;;;;4.35;1.42;;;;;;;4.44;80.85;102130.72;4974256;28;20054;-63
2020/12/25 07:12:19;;;;;;;7.97;1.65;;;;;;;4.47;80.21;102142.00;4974739;28;20510;-65
2020/12/25 07:14:46;;;;;;;6.03;1.38;;;;;;;4.12;80.76;102138.44;4974513;28;20061;-66
2020/12/25 07:17:13;;;;;;;9.23;1.83;;;;;;;4.18;81.42;102144.84;4973555;28;20066;-67
2020/12/25 07:19:43;;;;;;;6.32;1.95;;;;;;;4.27;80.86;102151.59;4973892;28;20498;-65
2020/12/25 07:22:10;;;;;;;4.72;1.40;;;;;;;4.24;80.62;102149.34;4974275;28;20042;-65
2020/12/25 07:24:39;;;;;;;9.18;1.67;;;;;;;4.23;81.11;102151.25;4974094;28;20061;-64
2020/12/25 07:27:07;;;;;;;8.57;1.52;;;;;;;4.39;80.62;102139.59;4974369;28;20066;-65
2020/12/25 07:29:35;;;;;;;5.20;1.58;;;;;;;4.35;80.85;102141.16;4973570;28;20529;-66
2020/12/25 07:32:03;;;;;;;7.50;1.45;;;;;;;4.25;80.84;102149.09;4973856;28;20481;-65
2020/12/25 07:34:30;;;;;;;5.80;1.52;;;;;;;4.05;81.66;102156.78;4973691;28;20062;-64
2020/12/25 07:36:57;;;;;;;8.68;2.05;;;;;;;4.09;82.01;102151.69;4972934;28;20051;-65
2020/12/25 07:39:28;;;;;;;5.50;1.42;;;;;;;4.21;81.32;102164.28;4973713;28;20050;-66
2020/12/25 07:41:55;;;;;;;7.15;1.40;;;;;;;4.10;81.46;102167.81;4973478;28;20058;-64
2020/12/25 07:44:23;;;;;;;4.10;1.33;;;;;;;4.01;82.09;102166.50;4988777;28;20055;-64
2020/12/25 07:46:50;;;;;;;9.38;1.60;;;;;;;4.01;82.15;102166.50;4956776;28;20384;-66
2020/12/25 07:49:19;;;;;;;7.75;1.52;;;;;;;4.09;82.09;102168.06;4974301;28;20058;-64
2020/12/25 07:51:49;;;;;;;5.53;1.45;;;;;;;4.18;81.55;102181.13;4988594;28;20059;-63
2020/12/25 07:54:16;;;;;;;9.50;2.25;;;;;;;4.10;81.80;102173.28;4973152;28;20157;-61
2020/12/25 07:56:45;;;;;;;8.20;1.80;;;;;;;4.22;81.18;102179.56;4974004;28;20054;-63
2020/12/25 07:59:13;;;;;;;4.30;1.55;;;;;;;4.20;81.32;102184.44;4974078;28;20047;-67
2020/12/25 08:01:40;;;;;;;8.30;2.20;;;;;;;4.12;81.72;102197.56;4988411;28;20062;-65
2020/12/25 08:04:07;;;;;;;5.82;1.70;;;;;;;4.16;81.56;102204.22;4974064;28;20058;-64
2020/12/25 08:06:35;;;;;;;6.72;1.73;;;;;;;4.07;81.66;102205.63;4975053;28;20384;-65
2020/12/25 08:09:05;;;;;;;6.78;1.80;;;;;;;4.06;82.07;102206.72;4988998;28;20047;-63
2020/12/25 08:11:32;;;;;;;7.35;1.90;;;;;;;4.13;82.28;102210.16;4972008;28;20058;-62
2020/12/25 08:14:03;;;;;;;10.18;2.10;;;;;;;4.36;81.62;102202.81;4973242;28;20538;-62
2020/12/25 08:16:31;;;;;;;8.50;1.60;;;;;;;4.41;80.59;102202.94;4988786;28;20066;-64
2020/12/25 08:18:58;;;;;;;7.05;1.70;;;;;;;4.24;81.59;102214.78;4975583;28;20494;-66
2020/12/25 08:21:32;;;;;;;8.55;1.50;;;;;;;4.26;81.07;102220.84;4960184;28;20062;-64
2020/12/25 08:24:00;;;;;;;5.68;1.42;;;;;;;4.34;81.14;102218.59;4977671;28;20157;-70
2020/12/25 08:26:40;;;;;;;9.55;1.85;;;;;;;4.66;80.50;102224.53;4977553;28;20402;-63
2020/12/25 08:29:08;;;;;;;7.60;1.70;;;;;;;4.36;80.32;102234.72;4977327;28;20054;-64
2020/12/25 08:31:37;;;;;;;7.80;1.50;;;;;;;4.20;80.82;102238.97;4976868;28;20054;-62
2020/12/25 08:34:06;;;;;;;7.05;1.60;;;;;;;4.06;81.69;102242.16;4976557;28;20053;-68
2020/12/25 08:36:33;;;;;;;8.25;2.00;;;;;;;4.18;81.49;102238.41;4977338;28;20070;-68
2020/12/25 08:39:08;;;;;;;9.32;1.58;;;;;;;4.07;81.30;102241.06;4991787;28;20057;-69
2020/12/25 08:41:35;;;;;;;4.80;1.38;;;;;;;4.21;81.50;102247.97;4978650;28;20057;-69
2020/12/25 08:44:09;;;;;;;11.48;1.65;;;;;;;4.43;81.24;102241.72;4977583;28;20058;-63
2020/12/25 08:46:37;;;;;;;7.15;1.70;;;;;;;4.29;80.83;102244.91;4976492;28;20073;-66
2020/12/25 08:49:03;;;;;;;8.95;1.90;;;;;;;4.09;81.74;102241.69;4992244;28;20047;-65
2020/12/25 08:51:36;;;;;;;10.75;1.83;;;;;;;4.15;82.52;102243.47;4975509;28;20046;-66
2020/12/25 08:54:03;;;;;;;12.00;2.00;;;;;;;4.17;82.39;102250.34;4991623;28;20050;-65
2020/12/25 08:56:30;;;;;;;10.77;2.28;;;;;;;4.19;82.60;102258.28;4976353;28;20061;-65
2020/12/25 08:59:07;;;;;;;8.13;1.90;;;;;;;4.26;82.80;102253.56;4976375;28;20054;-65
2020/12/25 09:01:38;;;;;;;9.60;2.20;;;;;;;4.18;82.60;102257.47;4976236;28;20054;-66
2020/12/25 09:04:11;;;;;;;7.45;2.05;;;;;;;4.19;83.14;102256.41;4976785;28;20050;-66
2020/12/25 09:06:38;;;;;;;7.55;1.90;;;;;;;4.28;82.85;102274.09;4977264;28;20390;-67
2020/12/25 09:09:19;;;;;;;9.98;2.25;;;;;;;4.22;82.59;102276.94;4976937;28;20059;-69
2020/12/25 09:11:46;;;;;;;7.72;1.98;;;;;;;4.36;82.00;102262.84;4976488;28;20058;-71
2020/12/25 09:14:13;;;;;;;8.95;2.03;;;;;;;4.37;81.83;102274.59;4976620;28;20061;-68
2020/12/25 09:16:40;;;;;;;8.82;1.92;;;;;;;4.34;81.53;102292.22;4976659;28;20483;-69
2020/12/25 09:19:07;;;;;;;11.63;2.45;;;;;;;4.16;82.50;102280.59;4976129;28;20394;-68
2020/12/25 09:21:33;;;;;;;8.93;2.38;;;;;;;4.26;82.82;102283.56;4976420;28;20506;-68
2020/12/25 09:24:00;;;;;;;9.90;2.33;;;;;;;4.20;82.21;102279.06;4975206;28;20047;-66
2020/12/25 09:26:27;;;;;;;10.15;2.40;;;;;;;4.25;82.47;102271.81;4976046;28;20055;-64
2020/12/25 09:28:54;;;;;;;10.32;2.30;;;;;;;4.40;82.38;102277.66;4975881;28;20058;-63
2020/12/25 09:35:54;;;;;;;7.93;2.35;;;;;;;4.40;81.86;102294.03;4956537;29;20514;-65
2020/12/25 09:38:23;;;;;;;;;;;;;;;4.69;81.22;102300.47;4957161;29;20054;-65
2020/12/25 09:40:51;;;;;;;9.52;2.25;;;;;;;4.48;80.95;102290.97;4957027;28;19929;-65
2020/12/25 09:43:20;;;;;;;5.90;1.80;;;;;;;4.44;81.44;102299.88;4956576;29;20054;-65
2020/12/25 09:50:15;;;;;;;8.48;2.47;;;;;;;4.43;80.50;102303.63;4955402;29;20073;-64
2020/12/25 09:52:42;;;;;;;7.50;1.77;;;;;;;4.50;80.33;102313.38;4956262;29;20051;-64
2020/12/25 09:55:09;;;;;;;8.85;1.80;;;;;;;4.52;80.40;102313.16;4971521;28;20051;-65
2020/12/25 09:57:37;;;;;;;6.47;2.05;;;;;;;4.55;80.35;102320.84;4956921;28;20062;-64
2020/12/25 10:04:45;;;;;;;4.78;1.58;;;;;;;4.55;80.27;102315.41;4956393;29;20051;-62
2020/12/25 10:07:12;;;;;;;7.85;2.10;;;;;;;4.79;80.41;102319.84;4956082;29;20051;-64
2020/12/25 10:09:47;;;;;;;4.40;1.85;;;;;;;4.75;79.57;102331.44;4956189;29;20059;-66
2020/12/25 10:12:14;;;;;;;7.90;1.77;;;;;;;4.80;79.29;102328.84;4956507;28;20068;-64
2020/12/25 10:14:41;;;;;;;5.32;1.50;;;;;;;4.81;79.06;102331.38;4955820;29;20055;-63
2020/12/25 10:17:08;;;;;;;11.30;1.95;;;;;;;4.90;78.92;102335.38;4938866;29;20048;-64
2020/12/25 10:19:35;;;;;;;6.60;1.50;;;;;;;4.80;78.66;102337.03;4956084;29;20054;-64
2020/12/25 10:22:02;;;;;;;5.78;1.95;;;;;;;4.85;78.49;102345.34;4971035;28;20059;-63
2020/12/25 10:24:29;;;;;;;8.70;2.30;;;;;;;4.97;77.76;102355.22;4939445;29;20051;-65
2020/12/25 10:26:57;;;;;;;5.18;1.67;;;;;;;4.83;78.58;102347.50;4955897;29;20603;-66
2020/12/25 10:29:24;;;;;;;5.78;1.67;;;;;;;4.99;77.92;102355.81;4970855;28;20051;-73
2020/12/25 10:36:28;;;;;;;8.95;2.25;;;;;;;4.98;77.62;102347.88;4955788;29;20471;-65
2020/12/25 10:38:55;;;;;;;7.93;1.70;;;;;;;5.07;77.60;102350.03;4956346;28;20390;-63
2020/12/25 10:41:29;;;;;;;8.75;1.98;;;;;;;4.95;78.47;102348.34;4955295;28;20058;-64
2020/12/25 10:43:57;;;;;;;7.22;1.98;;;;;;;5.09;77.56;102347.03;4955471;29;20487;-64
2020/12/25 10:50:51;;;;;;;6.90;1.77;;;;;;;5.37;76.90;102336.22;4954735;28;20048;-62
2020/12/25 10:53:18;;;;;;;10.70;2.10;;;;;;;5.52;76.32;102331.91;4969521;28;20058;-63
2020/12/25 10:55:45;;;;;;;6.57;2.20;;;;;;;5.47;75.91;102329.03;4955712;28;20055;-64
2020/12/25 10:58:12;;;;;;;5.93;1.95;;;;;;;5.67;75.14;102331.38;4954990;28;20051;-62
2020/12/25 11:00:40;;;;;;;6.47;2.20;;;;;;;5.38;76.14;102327.78;4954489;28;20062;-63
2020/12/25 11:03:09;;;;;;;6.60;1.75;;;;;;;5.30;76.61;102324.59;4955236;28;20138;-64
2020/12/25 11:05:36;;;;;;;7.85;2.17;;;;;;;5.35;76.13;102328.25;4954981;28;20391;-65
2020/12/25 11:08:03;;;;;;;11.02;3.08;;;;;;;5.54;76.40;102320.75;4953901;28;20047;-63
2020/12/25 11:10:46;;;;;;;6.45;1.95;;;;;;;5.49;75.31;102313.25;4954445;29;20055;-65
2020/12/25 11:13:13;;;;;;;9.10;2.00;;;;;;;5.40;75.73;102313.88;4953621;29;20055;-63
2020/12/25 11:15:42;;;;;;;5.53;2.00;;;;;;;5.41;75.78;102313.63;4954955;29;20468;-66
2020/12/25 11:18:08;;;;;;;8.48;1.75;;;;;;;5.34;75.71;102317.56;4969931;28;20051;-65
2020/12/25 11:20:35;;;;;;;6.03;2.03;;;;;;;5.47;75.78;102312.66;4970304;28;20069;-66
2020/12/25 11:23:02;;;;;;;8.48;2.15;;;;;;;5.57;75.25;102310.16;4954621;29;20051;-65
2020/12/25 11:25:30;;;;;;;7.70;2.15;;;;;;;5.71;74.75;102306.06;4955731;29;20051;-65
2020/12/25 11:27:57;;;;;;;7.93;2.08;;;;;;;5.50;75.02;102308.63;4955516;28;20056;-65
2020/12/25 11:30:23;;;;;;;8.80;1.60;;;;;;;5.71;75.10;102302.50;4955294;28;20055;-64
2020/12/25 11:37:41;;;;;;;8.85;2.10;;;;;;;6.03;73.91;102290.06;4955510;28;20380;-64
2020/12/25 11:40:07;;;;;;;6.55;1.77;;;;;;;5.91;73.38;102283.78;4955597;29;20055;-67
2020/12/25 11:42:36;;;;;;;11.50;2.58;;;;;;;5.86;74.21;102282.88;4954732;29;20491;-65
2020/12/25 11:45:03;;;;;;;9.65;1.92;;;;;;;6.08;73.24;102286.56;4938372;29;20541;-66
2020/12/25 11:52:07;;;;;;;9.40;2.45;;;;;;;5.98;73.29;102270.78;4956136;28;20051;-65
2020/12/25 11:54:34;;;;;;;12.30;2.72;;;;;;;6.03;73.67;102281.84;4958648;29;20052;-66
2020/12/25 11:57:01;;;;;;;7.90;2.40;;;;;;;6.06;72.77;102286.81;4958853;28;20058;-65
2020/12/25 11:59:28;;;;;;;9.07;2.20;;;;;;;6.18;71.82;102284.03;4958681;29;20050;-65
2020/12/25 12:01:55;;;;;;;7.95;1.88;;;;;;;5.93;71.52;102283.56;4958775;28;20062;-64
2020/12/25 12:04:22;;;;;;;7.65;1.88;;;;;;;5.63;72.69;102281.84;4958678;29;20066;-65
2020/12/25 12:06:56;;;;;;;13.43;3.40;;;;;;;5.83;72.03;102278.72;4958698;29;20039;-63
2020/12/25 12:09:23;;;;;;;8.80;2.42;;;;;;;5.78;72.01;102277.75;4958508;29;20051;-62
2020/12/25 12:11:50;;;;;;;7.65;2.00;;;;;;;5.86;72.35;102270.03;4958288;29;20059;-64
2020/12/25 12:14:17;;;;;;;9.30;1.80;;;;;;;5.96;71.91;102283.91;4958014;29;20051;-66
2020/12/25 12:16:44;;;;;;;9.40;2.10;;;;;;;5.76;72.38;102286.19;4957333;29;20051;-64
2020/12/25 12:19:11;;;;;;;5.85;1.67;;;;;;;5.73;72.50;102286.69;4958258;28;20051;-64
2020/12/25 12:21:38;;;;;;;8.68;2.05;;;;;;;5.70;71.30;102281.72;4957751;29;20066;-64
2020/12/25 12:24:05;;;;;;;9.35;1.83;;;;;;;5.64;71.23;102279.94;4958227;29;20054;-65
2020/12/25 12:26:34;;;;;;;10.82;1.73;;;;;;;5.55;71.36;102260.38;4957871;29;20067;-64
2020/12/25 12:29:07;;;;;;;13.23;1.75;;;;;;;5.89;70.80;102282.38;4958011;29;20062;-66
2020/12/25 12:31:38;;;;;;;12.73;2.15;;;;;;;5.95;70.27;102268.56;4957213;29;20062;-64
2020/12/25 12:34:05;;;;;;;10.82;2.60;;;;;;;6.27;69.59;102271.59;4957404;29;20379;-65
2020/12/25 12:36:32;;;;;;;8.10;2.80;;;;;;;6.24;68.60;102274.84;4970379;28;20478;-63
2020/12/25 12:38:59;;;;;;;5.22;1.58;;;;;;;6.07;68.84;102260.28;4975086;28;20051;-69
2020/12/25 12:41:41;;;;;;;7.28;1.52;;;;;;;6.05;68.60;102262.47;4976874;28;20047;-64
2020/12/25 12:44:08;;;;;;;6.65;1.30;;;;;;;5.90;68.89;102278.56;4976982;28;20055;-67
2020/12/25 12:51:18;;;;;;;8.18;1.58;;;;;;;5.63;68.89;102273.63;4976378;28;20050;-66
2020/12/25 12:53:45;;;;;;;9.20;1.60;;;;;;;5.55;69.23;102268.56;4975980;28;20051;-69
2020/12/25 12:56:17;;;;;;;6.82;2.13;;;;;;;5.79;68.75;102273.97;4990769;28;20402;-72
2020/12/25 12:58:44;;;;;;;8.57;1.63;;;;;;;5.58;69.43;102261.78;4977037;28;20051;-65
2020/12/25 13:01:19;;;;;;;7.15;1.60;;;;;;;5.93;69.42;102265.22;4976854;28;20061;-64
2020/12/25 13:08:07;;;;;;;10.57;1.65;;;;;;;5.99;69.15;102260.69;4976851;28;20043;-65